sensor_id;sensor_type;location;lat;lon;timestamp;temperature;humidity
3684;DHT22;1858;48.716;9.648;2022-07-10T00:01:07;18.50;1.00
3684;DHT22;1858;48.716;9.648;2022-07-10T00:03:35;18.40;1.00
3684;DHT22;1858;48.716;9.648;2022-07-10T00:06:03;18.40;1.00
3684;DHT22;1858;48.716;9.648;2022-07-10T00:08:32;18.40;1.00
3684;DHT22;1858;48.716;9.648;2022-07-10T00:11:00;18.50;1.00
3684;DHT22;1858;48.716;9.648;2022-07-10T00:13:28;18.40;1.00
3684;DHT22;1858;48.716;9.648;2022-07-10T00:15:57;18.40;1.00
3684;DHT22;1858;48.716;9.648;2022-07-10T00:18:25;18.40;1.00
3684;DHT22;1858;48.716;9.648;2022-07-10T00:20:54;18.50;99.90
3684;DHT22;1858;48.716;9.648;2022-07-10T00:23:22;18.60;99.90
3684;DHT22;1858;48.716;9.648;2022-07-10T00:25:51;18.60;99.90
3684;DHT22;1858;48.716;9.648;2022-07-10T00:28:19;18.60;99.90
3684;DHT22;1858;48.716;9.648;2022-07-10T00:30:47;18.50;99.90
3684;DHT22;1858;48.716;9.648;2022-07-10T00:33:16;18.40;99.90
3684;DHT22;1858;48.716;9.648;2022-07-10T00:35:44;18.30;99.90
3684;DHT22;1858;48.716;9.648;2022-07-10T00:38:12;18.30;99.90
3684;DHT22;1858;48.716;9.648;2022-07-10T00:40:41;18.30;99.90
3684;DHT22;1858;48.716;9.648;2022-07-10T00:43:10;18.30;1.00
3684;DHT22;1858;48.716;9.648;2022-07-10T00:45:38;18.20;1.00
3684;DHT22;1858;48.716;9.648;2022-07-10T00:48:07;18.30;1.00
3684;DHT22;1858;48.716;9.648;2022-07-10T00:50:36;18.30;1.00
3684;DHT22;1858;48.716;9.648;2022-07-10T00:53:05;18.30;1.00
3684;DHT22;1858;48.716;9.648;2022-07-10T00:55:36;18.30;1.00
3684;DHT22;1858;48.716;9.648;2022-07-10T00:58:07;18.50;99.90
3684;DHT22;1858;48.716;9.648;2022-07-10T01:00:36;18.50;99.90
3684;DHT22;1858;48.716;9.648;2022-07-10T01:03:07;18.40;99.90
3684;DHT22;1858;48.716;9.648;2022-07-10T01:05:37;18.50;99.90
3684;DHT22;1858;48.716;9.648;2022-07-10T01:08:05;18.40;99.90
3684;DHT22;1858;48.716;9.648;2022-07-10T01:10:34;18.30;99.90
3684;DHT22;1858;48.716;9.648;2022-07-10T01:13:02;18.20;99.90
3684;DHT22;1858;48.716;9.648;2022-07-10T01:15:31;18.10;99.90
3684;DHT22;1858;48.716;9.648;2022-07-10T01:18:00;18.00;1.00
3684;DHT22;1858;48.716;9.648;2022-07-10T01:20:33;18.00;1.00
3684;DHT22;1858;48.716;9.648;2022-07-10T01:23:02;18.00;1.00
3684;DHT22;1858;48.716;9.648;2022-07-10T01:25:30;17.90;1.00
3684;DHT22;1858;48.716;9.648;2022-07-10T01:28:00;17.90;1.00
3684;DHT22;1858;48.716;9.648;2022-07-10T01:30:28;17.90;1.00
3684;DHT22;1858;48.716;9.648;2022-07-10T01:32:56;17.80;1.00
3684;DHT22;1858;48.716;9.648;2022-07-10T01:35:25;17.80;1.00
3684;DHT22;1858;48.716;9.648;2022-07-10T01:37:53;17.80;1.00
3684;DHT22;1858;48.716;9.648;2022-07-10T01:40:22;17.70;1.00
3684;DHT22;1858;48.716;9.648;2022-07-10T01:42:50;17.70;1.00
3684;DHT22;1858;48.716;9.648;2022-07-10T01:45:19;17.70;1.00
3684;DHT22;1858;48.716;9.648;2022-07-10T01:47:47;17.70;1.00
3684;DHT22;1858;48.716;9.648;2022-07-10T01:50:16;17.80;1.00
3684;DHT22;1858;48.716;9.648;2022-07-10T01:52:44;17.80;99.90
3684;DHT22;1858;48.716;9.648;2022-07-10T01:55:13;17.70;1.00
3684;DHT22;1858;48.716;9.648;2022-07-10T01:57:42;17.60;1.00
3684;DHT22;1858;48.716;9.648;2022-07-10T02:00:11;17.50;1.00
3684;DHT22;1858;48.716;9.648;2022-07-10T02:02:39;17.40;1.00
3684;DHT22;1858;48.716;9.648;2022-07-10T02:05:08;17.40;1.00
3684;DHT22;1858;48.716;9.648;2022-07-10T02:07:36;17.40;1.00
3684;DHT22;1858;48.716;9.648;2022-07-10T02:10:04;17.40;1.00
3684;DHT22;1858;48.716;9.648;2022-07-10T02:12:32;17.30;1.00
3684;DHT22;1858;48.716;9.648;2022-07-10T02:15:01;17.20;1.00
3684;DHT22;1858;48.716;9.648;2022-07-10T02:17:29;17.20;1.00
3684;DHT22;1858;48.716;9.648;2022-07-10T02:19:58;17.10;1.00
3684;DHT22;1858;48.716;9.648;2022-07-10T02:22:26;17.10;1.00
3684;DHT22;1858;48.716;9.648;2022-07-10T02:24:54;17.10;1.00
3684;DHT22;1858;48.716;9.648;2022-07-10T02:27:22;17.00;1.00
3684;DHT22;1858;48.716;9.648;2022-07-10T02:29:50;17.00;1.00
3684;DHT22;1858;48.716;9.648;2022-07-10T02:32:18;16.90;1.00
3684;DHT22;1858;48.716;9.648;2022-07-10T02:34:45;17.00;1.00
3684;DHT22;1858;48.716;9.648;2022-07-10T02:37:13;17.00;1.00
3684;DHT22;1858;48.716;9.648;2022-07-10T02:39:40;17.00;1.00
3684;DHT22;1858;48.716;9.648;2022-07-10T02:42:08;17.00;1.00
3684;DHT22;1858;48.716;9.648;2022-07-10T02:44:35;17.10;1.00
3684;DHT22;1858;48.716;9.648;2022-07-10T02:47:03;17.10;1.00
3684;DHT22;1858;48.716;9.648;2022-07-10T02:49:31;17.10;1.00
3684;DHT22;1858;48.716;9.648;2022-07-10T02:52:00;17.00;99.90
3684;DHT22;1858;48.716;9.648;2022-07-10T02:54:27;17.20;99.90
3684;DHT22;1858;48.716;9.648;2022-07-10T02:56:55;17.20;99.90
3684;DHT22;1858;48.716;9.648;2022-07-10T02:59:24;17.40;99.90
3684;DHT22;1858;48.716;9.648;2022-07-10T03:01:52;17.30;99.90
3684;DHT22;1858;48.716;9.648;2022-07-10T03:04:21;17.30;99.90
3684;DHT22;1858;48.716;9.648;2022-07-10T03:06:49;17.40;99.90
3684;DHT22;1858;48.716;9.648;2022-07-10T03:09:18;17.40;99.90
3684;DHT22;1858;48.716;9.648;2022-07-10T03:11:46;17.30;99.90
3684;DHT22;1858;48.716;9.648;2022-07-10T03:14:14;17.30;99.90
3684;DHT22;1858;48.716;9.648;2022-07-10T03:16:44;17.20;99.90
3684;DHT22;1858;48.716;9.648;2022-07-10T03:19:12;17.20;99.90
3684;DHT22;1858;48.716;9.648;2022-07-10T03:21:41;17.20;99.90
3684;DHT22;1858;48.716;9.648;2022-07-10T03:24:09;17.20;99.90
3684;DHT22;1858;48.716;9.648;2022-07-10T03:26:38;17.30;99.90
3684;DHT22;1858;48.716;9.648;2022-07-10T03:29:06;17.30;99.90
3684;DHT22;1858;48.716;9.648;2022-07-10T03:31:34;17.30;99.90
3684;DHT22;1858;48.716;9.648;2022-07-10T03:34:01;17.20;99.90
3684;DHT22;1858;48.716;9.648;2022-07-10T03:36:29;17.30;99.90
3684;DHT22;1858;48.716;9.648;2022-07-10T03:38:57;17.20;99.90
3684;DHT22;1858;48.716;9.648;2022-07-10T03:41:25;17.10;99.90
3684;DHT22;1858;48.716;9.648;2022-07-10T03:43:54;17.10;99.90
3684;DHT22;1858;48.716;9.648;2022-07-10T03:46:22;17.10;99.90
3684;DHT22;1858;48.716;9.648;2022-07-10T03:48:51;17.00;99.90
3684;DHT22;1858;48.716;9.648;2022-07-10T03:51:19;16.80;99.90
3684;DHT22;1858;48.716;9.648;2022-07-10T03:53:48;16.70;99.90
3684;DHT22;1858;48.716;9.648;2022-07-10T03:56:16;16.70;99.90
3684;DHT22;1858;48.716;9.648;2022-07-10T03:59:03;16.70;99.90
3684;DHT22;1858;48.716;9.648;2022-07-10T04:01:31;16.70;99.90
3684;DHT22;1858;48.716;9.648;2022-07-10T04:03:59;16.60;99.90
3684;DHT22;1858;48.716;9.648;2022-07-10T04:06:28;16.60;99.90
3684;DHT22;1858;48.716;9.648;2022-07-10T04:08:57;16.60;99.90
3684;DHT22;1858;48.716;9.648;2022-07-10T04:11:24;16.50;99.90
3684;DHT22;1858;48.716;9.648;2022-07-10T04:13:52;16.40;99.90
3684;DHT22;1858;48.716;9.648;2022-07-10T04:16:20;16.30;99.90
3684;DHT22;1858;48.716;9.648;2022-07-10T04:18:47;16.30;1.00
3684;DHT22;1858;48.716;9.648;2022-07-10T04:21:15;16.30;99.90
3684;DHT22;1858;48.716;9.648;2022-07-10T04:23:43;16.30;99.90
3684;DHT22;1858;48.716;9.648;2022-07-10T04:26:10;16.30;99.90
3684;DHT22;1858;48.716;9.648;2022-07-10T04:28:39;16.30;99.90
3684;DHT22;1858;48.716;9.648;2022-07-10T04:31:07;16.10;1.00
3684;DHT22;1858;48.716;9.648;2022-07-10T04:33:35;16.20;1.00
3684;DHT22;1858;48.716;9.648;2022-07-10T04:36:03;16.20;1.00
3684;DHT22;1858;48.716;9.648;2022-07-10T04:38:30;16.30;1.00
3684;DHT22;1858;48.716;9.648;2022-07-10T04:40:59;16.40;1.00
3684;DHT22;1858;48.716;9.648;2022-07-10T04:43:27;16.50;99.90
3684;DHT22;1858;48.716;9.648;2022-07-10T04:45:57;16.50;99.90
3684;DHT22;1858;48.716;9.648;2022-07-10T04:48:26;16.50;99.90
3684;DHT22;1858;48.716;9.648;2022-07-10T04:50:54;16.60;99.90
3684;DHT22;1858;48.716;9.648;2022-07-10T04:53:23;16.90;99.90
3684;DHT22;1858;48.716;9.648;2022-07-10T04:55:51;17.10;61.20
3684;DHT22;1858;48.716;9.648;2022-07-10T04:58:20;17.20;14.40
3684;DHT22;1858;48.716;9.648;2022-07-10T05:00:48;17.30;1.00
3684;DHT22;1858;48.716;9.648;2022-07-10T05:03:17;17.30;1.00
3684;DHT22;1858;48.716;9.648;2022-07-10T05:06:04;17.40;1.00
3684;DHT22;1858;48.716;9.648;2022-07-10T05:08:33;17.50;1.00
3684;DHT22;1858;48.716;9.648;2022-07-10T05:11:01;17.40;1.00
3684;DHT22;1858;48.716;9.648;2022-07-10T05:13:30;17.40;1.00
3684;DHT22;1858;48.716;9.648;2022-07-10T05:15:58;17.30;1.00
3684;DHT22;1858;48.716;9.648;2022-07-10T05:18:26;17.30;1.00
3684;DHT22;1858;48.716;9.648;2022-07-10T05:20:55;17.40;1.00
3684;DHT22;1858;48.716;9.648;2022-07-10T05:23:23;17.50;1.00
3684;DHT22;1858;48.716;9.648;2022-07-10T05:25:52;17.60;1.00
3684;DHT22;1858;48.716;9.648;2022-07-10T05:28:20;17.80;1.00
3684;DHT22;1858;48.716;9.648;2022-07-10T05:30:49;17.90;1.00
3684;DHT22;1858;48.716;9.648;2022-07-10T05:33:17;18.10;99.90
3684;DHT22;1858;48.716;9.648;2022-07-10T05:35:46;18.40;99.90
3684;DHT22;1858;48.716;9.648;2022-07-10T05:38:19;18.60;99.90
3684;DHT22;1858;48.716;9.648;2022-07-10T05:40:47;18.90;99.90
3684;DHT22;1858;48.716;9.648;2022-07-10T05:43:16;19.00;99.90
3684;DHT22;1858;48.716;9.648;2022-07-10T05:45:45;19.00;99.90
3684;DHT22;1858;48.716;9.648;2022-07-10T05:48:13;19.10;99.90
3684;DHT22;1858;48.716;9.648;2022-07-10T05:50:41;19.20;99.90
3684;DHT22;1858;48.716;9.648;2022-07-10T05:53:10;19.20;99.90
3684;DHT22;1858;48.716;9.648;2022-07-10T05:55:38;19.20;99.90
3684;DHT22;1858;48.716;9.648;2022-07-10T05:58:06;19.10;99.90
3684;DHT22;1858;48.716;9.648;2022-07-10T06:00:35;19.20;99.90
3684;DHT22;1858;48.716;9.648;2022-07-10T06:03:03;19.10;99.90
3684;DHT22;1858;48.716;9.648;2022-07-10T06:05:32;19.10;99.90
3684;DHT22;1858;48.716;9.648;2022-07-10T06:08:00;19.20;99.90
3684;DHT22;1858;48.716;9.648;2022-07-10T06:10:29;19.20;99.90
3684;DHT22;1858;48.716;9.648;2022-07-10T06:12:57;19.40;99.90
3684;DHT22;1858;48.716;9.648;2022-07-10T06:15:25;19.60;99.90
3684;DHT22;1858;48.716;9.648;2022-07-10T06:17:58;19.80;87.80
3684;DHT22;1858;48.716;9.648;2022-07-10T06:20:27;19.90;36.20
3684;DHT22;1858;48.716;9.648;2022-07-10T06:23:01;20.00;19.10
3684;DHT22;1858;48.716;9.648;2022-07-10T06:25:25;19.90;11.20
3684;DHT22;1858;48.716;9.648;2022-07-10T06:27:53;19.90;13.20
3684;DHT22;1858;48.716;9.648;2022-07-10T06:30:22;20.30;17.20
3684;DHT22;1858;48.716;9.648;2022-07-10T06:32:50;20.70;1.00
3684;DHT22;1858;48.716;9.648;2022-07-10T06:38:06;21.50;1.00
3684;DHT22;1858;48.716;9.648;2022-07-10T06:40:38;21.60;1.00
3684;DHT22;1858;48.716;9.648;2022-07-10T06:43:06;21.60;1.00
3684;DHT22;1858;48.716;9.648;2022-07-10T06:45:35;21.40;1.00
3684;DHT22;1858;48.716;9.648;2022-07-10T06:48:03;21.50;1.00
3684;DHT22;1858;48.716;9.648;2022-07-10T06:50:32;22.00;1.00
3684;DHT22;1858;48.716;9.648;2022-07-10T06:53:01;22.80;1.00
3684;DHT22;1858;48.716;9.648;2022-07-10T06:55:30;23.80;1.00
3684;DHT22;1858;48.716;9.648;2022-07-10T06:57:59;24.90;1.00
3684;DHT22;1858;48.716;9.648;2022-07-10T07:00:28;24.70;1.00
3684;DHT22;1858;48.716;9.648;2022-07-10T07:02:57;24.40;1.00
3684;DHT22;1858;48.716;9.648;2022-07-10T07:05:25;24.70;1.00
3684;DHT22;1858;48.716;9.648;2022-07-10T07:07:54;24.40;1.00
3684;DHT22;1858;48.716;9.648;2022-07-10T07:10:23;23.80;1.00
3684;DHT22;1858;48.716;9.648;2022-07-10T07:12:51;23.20;1.00
3684;DHT22;1858;48.716;9.648;2022-07-10T07:15:20;22.90;1.00
3684;DHT22;1858;48.716;9.648;2022-07-10T07:17:50;22.30;1.00
3684;DHT22;1858;48.716;9.648;2022-07-10T07:20:25;21.70;1.00
3684;DHT22;1858;48.716;9.648;2022-07-10T07:23:12;21.50;1.00
3684;DHT22;1858;48.716;9.648;2022-07-10T07:25:41;21.30;1.00
3684;DHT22;1858;48.716;9.648;2022-07-10T07:28:11;21.50;1.00
3684;DHT22;1858;48.716;9.648;2022-07-10T07:30:39;21.70;1.00
3684;DHT22;1858;48.716;9.648;2022-07-10T07:33:08;22.50;1.00
3684;DHT22;1858;48.716;9.648;2022-07-10T07:35:37;23.50;1.00
3684;DHT22;1858;48.716;9.648;2022-07-10T07:38:05;23.80;1.00
3684;DHT22;1858;48.716;9.648;2022-07-10T07:40:34;24.40;1.00
3684;DHT22;1858;48.716;9.648;2022-07-10T07:43:04;25.40;1.00
3684;DHT22;1858;48.716;9.648;2022-07-10T07:45:33;25.00;1.00
3684;DHT22;1858;48.716;9.648;2022-07-10T07:48:02;24.80;1.00
3684;DHT22;1858;48.716;9.648;2022-07-10T07:50:32;24.50;1.00
3684;DHT22;1858;48.716;9.648;2022-07-10T07:53:07;24.50;1.00
3684;DHT22;1858;48.716;9.648;2022-07-10T07:55:35;25.20;1.00
3684;DHT22;1858;48.716;9.648;2022-07-10T07:58:04;26.60;1.00
3684;DHT22;1858;48.716;9.648;2022-07-10T08:00:32;27.70;1.00
3684;DHT22;1858;48.716;9.648;2022-07-10T08:03:01;27.70;1.00
3684;DHT22;1858;48.716;9.648;2022-07-10T08:08:19;27.10;1.00
3684;DHT22;1858;48.716;9.648;2022-07-10T08:10:47;26.40;1.00
3684;DHT22;1858;48.716;9.648;2022-07-10T08:13:16;25.60;1.00
3684;DHT22;1858;48.716;9.648;2022-07-10T08:15:44;25.10;1.00
3684;DHT22;1858;48.716;9.648;2022-07-10T08:18:12;24.90;1.00
3684;DHT22;1858;48.716;9.648;2022-07-10T08:20:42;25.40;1.00
3684;DHT22;1858;48.716;9.648;2022-07-10T08:23:10;26.80;1.00
3684;DHT22;1858;48.716;9.648;2022-07-10T08:25:38;28.30;1.00
3684;DHT22;1858;48.716;9.648;2022-07-10T08:28:06;29.40;1.00
3684;DHT22;1858;48.716;9.648;2022-07-10T08:30:35;29.90;1.00
3684;DHT22;1858;48.716;9.648;2022-07-10T08:33:03;31.30;1.00
3684;DHT22;1858;48.716;9.648;2022-07-10T08:35:30;31.60;1.00
3684;DHT22;1858;48.716;9.648;2022-07-10T08:37:59;30.80;1.00
3684;DHT22;1858;48.716;9.648;2022-07-10T08:40:35;29.80;1.00
3684;DHT22;1858;48.716;9.648;2022-07-10T08:42:59;29.70;1.00
3684;DHT22;1858;48.716;9.648;2022-07-10T08:45:27;31.40;1.00
3684;DHT22;1858;48.716;9.648;2022-07-10T08:47:56;32.60;1.00
3684;DHT22;1858;48.716;9.648;2022-07-10T08:50:26;33.90;99.90
3684;DHT22;1858;48.716;9.648;2022-07-10T08:53:24;35.20;99.90
3684;DHT22;1858;48.716;9.648;2022-07-10T08:55:56;35.60;99.90
3684;DHT22;1858;48.716;9.648;2022-07-10T08:58:26;34.70;99.90
3684;DHT22;1858;48.716;9.648;2022-07-10T09:00:56;34.90;99.90
3684;DHT22;1858;48.716;9.648;2022-07-10T09:03:27;34.40;99.90
3684;DHT22;1858;48.716;9.648;2022-07-10T09:06:00;33.60;99.90
3684;DHT22;1858;48.716;9.648;2022-07-10T09:08:34;34.00;99.90
3684;DHT22;1858;48.716;9.648;2022-07-10T09:11:15;35.00;99.90
3684;DHT22;1858;48.716;9.648;2022-07-10T09:16:23;36.80;99.90
3684;DHT22;1858;48.716;9.648;2022-07-10T09:18:53;36.00;99.90
3684;DHT22;1858;48.716;9.648;2022-07-10T09:21:24;35.00;99.90
3684;DHT22;1858;48.716;9.648;2022-07-10T09:23:54;34.50;99.90
3684;DHT22;1858;48.716;9.648;2022-07-10T09:26:24;34.80;99.90
3684;DHT22;1858;48.716;9.648;2022-07-10T09:29:12;35.40;99.90
3684;DHT22;1858;48.716;9.648;2022-07-10T09:34:47;33.40;99.90
3684;DHT22;1858;48.716;9.648;2022-07-10T09:37:26;32.40;99.90
3684;DHT22;1858;48.716;9.648;2022-07-10T09:40:00;30.80;99.90
3684;DHT22;1858;48.716;9.648;2022-07-10T09:42:41;29.80;99.90
3684;DHT22;1858;48.716;9.648;2022-07-10T09:45:18;30.60;99.90
3684;DHT22;1858;48.716;9.648;2022-07-10T09:47:58;32.00;99.90
3684;DHT22;1858;48.716;9.648;2022-07-10T09:50:46;31.60;99.90
3684;DHT22;1858;48.716;9.648;2022-07-10T09:53:16;30.30;99.90
3684;DHT22;1858;48.716;9.648;2022-07-10T09:55:45;30.90;99.90
3684;DHT22;1858;48.716;9.648;2022-07-10T09:58:15;30.80;99.90
3684;DHT22;1858;48.716;9.648;2022-07-10T10:00:45;31.30;99.90
3684;DHT22;1858;48.716;9.648;2022-07-10T10:03:17;31.40;99.90
3684;DHT22;1858;48.716;9.648;2022-07-10T10:05:55;30.90;99.90
3684;DHT22;1858;48.716;9.648;2022-07-10T10:08:25;30.00;99.90
3684;DHT22;1858;48.716;9.648;2022-07-10T10:11:01;29.20;99.90
3684;DHT22;1858;48.716;9.648;2022-07-10T10:13:30;28.20;99.90
3684;DHT22;1858;48.716;9.648;2022-07-10T10:18:51;27.10;1.00
3684;DHT22;1858;48.716;9.648;2022-07-10T10:21:39;28.70;99.90
3684;DHT22;1858;48.716;9.648;2022-07-10T10:24:08;28.90;99.90
3684;DHT22;1858;48.716;9.648;2022-07-10T10:26:41;29.80;99.90
3684;DHT22;1858;48.716;9.648;2022-07-10T10:29:10;29.50;99.90
3684;DHT22;1858;48.716;9.648;2022-07-10T10:31:42;28.90;99.90
3684;DHT22;1858;48.716;9.648;2022-07-10T10:34:11;28.00;1.00
3684;DHT22;1858;48.716;9.648;2022-07-10T10:36:44;27.30;1.00
3684;DHT22;1858;48.716;9.648;2022-07-10T10:39:16;27.00;1.00
3684;DHT22;1858;48.716;9.648;2022-07-10T10:41:55;26.80;1.00
3684;DHT22;1858;48.716;9.648;2022-07-10T10:44:25;27.00;1.00
3684;DHT22;1858;48.716;9.648;2022-07-10T10:47:02;27.40;1.00
3684;DHT22;1858;48.716;9.648;2022-07-10T10:49:50;27.20;1.00
3684;DHT22;1858;48.716;9.648;2022-07-10T10:52:19;27.20;1.00
3684;DHT22;1858;48.716;9.648;2022-07-10T10:55:00;27.00;1.00
3684;DHT22;1858;48.716;9.648;2022-07-10T10:57:35;27.00;1.00
3684;DHT22;1858;48.716;9.648;2022-07-10T11:00:11;27.80;1.00
3684;DHT22;1858;48.716;9.648;2022-07-10T11:02:44;29.40;99.90
3684;DHT22;1858;48.716;9.648;2022-07-10T11:07:56;28.50;99.90
3684;DHT22;1858;48.716;9.648;2022-07-10T11:10:45;27.60;99.90
3684;DHT22;1858;48.716;9.648;2022-07-10T11:13:19;27.10;99.90
3684;DHT22;1858;48.716;9.648;2022-07-10T11:15:54;26.70;99.90
3684;DHT22;1858;48.716;9.648;2022-07-10T11:18:24;26.20;99.90
3684;DHT22;1858;48.716;9.648;2022-07-10T11:20:55;25.60;99.90
3684;DHT22;1858;48.716;9.648;2022-07-10T11:26:13;25.40;1.00
3684;DHT22;1858;48.716;9.648;2022-07-10T11:31:20;26.00;1.00
3684;DHT22;1858;48.716;9.648;2022-07-10T11:33:56;26.20;1.00
3684;DHT22;1858;48.716;9.648;2022-07-10T11:36:26;26.20;1.00
3684;DHT22;1858;48.716;9.648;2022-07-10T11:39:07;25.80;1.00
3684;DHT22;1858;48.716;9.648;2022-07-10T11:41:45;25.10;1.00
3684;DHT22;1858;48.716;9.648;2022-07-10T11:44:16;24.80;1.00
3684;DHT22;1858;48.716;9.648;2022-07-10T11:46:47;24.70;1.00
3684;DHT22;1858;48.716;9.648;2022-07-10T11:49:17;24.70;1.00
3684;DHT22;1858;48.716;9.648;2022-07-10T11:51:46;25.00;1.00
3684;DHT22;1858;48.716;9.648;2022-07-10T11:54:18;25.10;1.00
3684;DHT22;1858;48.716;9.648;2022-07-10T11:56:48;24.90;1.00
3684;DHT22;1858;48.716;9.648;2022-07-10T11:59:27;24.90;1.00
3684;DHT22;1858;48.716;9.648;2022-07-10T12:01:56;25.00;1.00
3684;DHT22;1858;48.716;9.648;2022-07-10T12:04:28;24.90;1.00
3684;DHT22;1858;48.716;9.648;2022-07-10T12:06:58;24.90;1.00
3684;DHT22;1858;48.716;9.648;2022-07-10T12:09:29;24.90;1.00
3684;DHT22;1858;48.716;9.648;2022-07-10T12:12:06;24.80;1.00
3684;DHT22;1858;48.716;9.648;2022-07-10T12:14:36;24.70;1.00
3684;DHT22;1858;48.716;9.648;2022-07-10T12:17:12;24.80;1.00
3684;DHT22;1858;48.716;9.648;2022-07-10T12:19:41;24.90;1.00
3684;DHT22;1858;48.716;9.648;2022-07-10T12:22:12;24.90;1.00
3684;DHT22;1858;48.716;9.648;2022-07-10T12:24:43;24.80;1.00
3684;DHT22;1858;48.716;9.648;2022-07-10T12:27:22;24.70;1.00
3684;DHT22;1858;48.716;9.648;2022-07-10T12:29:42;24.80;1.00
3684;DHT22;1858;48.716;9.648;2022-07-10T12:32:21;24.50;1.00
3684;DHT22;1858;48.716;9.648;2022-07-10T12:34:50;24.30;1.00
3684;DHT22;1858;48.716;9.648;2022-07-10T12:37:17;24.20;1.00
3684;DHT22;1858;48.716;9.648;2022-07-10T12:39:51;24.40;1.00
3684;DHT22;1858;48.716;9.648;2022-07-10T12:42:29;24.30;1.00
3684;DHT22;1858;48.716;9.648;2022-07-10T12:45:12;24.40;1.00
3684;DHT22;1858;48.716;9.648;2022-07-10T12:47:48;24.50;1.00
3684;DHT22;1858;48.716;9.648;2022-07-10T12:50:18;24.60;1.00
3684;DHT22;1858;48.716;9.648;2022-07-10T12:52:47;24.50;1.00
3684;DHT22;1858;48.716;9.648;2022-07-10T12:55:18;24.30;1.00
3684;DHT22;1858;48.716;9.648;2022-07-10T12:57:59;24.10;1.00
3684;DHT22;1858;48.716;9.648;2022-07-10T13:00:33;24.00;1.00
3684;DHT22;1858;48.716;9.648;2022-07-10T13:03:07;23.90;1.00
3684;DHT22;1858;48.716;9.648;2022-07-10T13:05:38;23.80;1.00
3684;DHT22;1858;48.716;9.648;2022-07-10T13:10:44;23.60;1.00
3684;DHT22;1858;48.716;9.648;2022-07-10T13:13:14;23.40;1.00
3684;DHT22;1858;48.716;9.648;2022-07-10T13:15:44;23.30;1.00
3684;DHT22;1858;48.716;9.648;2022-07-10T13:18:22;22.80;1.00
3684;DHT22;1858;48.716;9.648;2022-07-10T13:20:53;22.80;1.00
3684;DHT22;1858;48.716;9.648;2022-07-10T13:23:23;23.00;1.00
3684;DHT22;1858;48.716;9.648;2022-07-10T13:25:53;23.10;1.00
3684;DHT22;1858;48.716;9.648;2022-07-10T13:28:22;22.90;1.00
3684;DHT22;1858;48.716;9.648;2022-07-10T13:30:52;22.90;1.00
3684;DHT22;1858;48.716;9.648;2022-07-10T13:33:21;22.80;1.00
3684;DHT22;1858;48.716;9.648;2022-07-10T13:35:52;22.60;1.00
3684;DHT22;1858;48.716;9.648;2022-07-10T13:38:22;22.60;1.00
3684;DHT22;1858;48.716;9.648;2022-07-10T13:40:53;22.90;1.00
3684;DHT22;1858;48.716;9.648;2022-07-10T13:43:22;23.30;1.00
3684;DHT22;1858;48.716;9.648;2022-07-10T13:46:11;23.60;1.00
3684;DHT22;1858;48.716;9.648;2022-07-10T13:48:41;23.70;1.00
3684;DHT22;1858;48.716;9.648;2022-07-10T13:51:10;23.70;1.00
3684;DHT22;1858;48.716;9.648;2022-07-10T13:53:39;23.50;1.00
3684;DHT22;1858;48.716;9.648;2022-07-10T13:56:08;23.50;1.00
3684;DHT22;1858;48.716;9.648;2022-07-10T13:58:41;23.30;1.00
3684;DHT22;1858;48.716;9.648;2022-07-10T14:01:11;23.00;1.00
3684;DHT22;1858;48.716;9.648;2022-07-10T14:03:40;23.00;1.00
3684;DHT22;1858;48.716;9.648;2022-07-10T14:06:09;22.90;1.00
3684;DHT22;1858;48.716;9.648;2022-07-10T14:08:40;23.30;1.00
3684;DHT22;1858;48.716;9.648;2022-07-10T14:13:42;23.70;1.00
3684;DHT22;1858;48.716;9.648;2022-07-10T14:16:11;23.70;1.00
3684;DHT22;1858;48.716;9.648;2022-07-10T14:18:40;23.60;1.00
3684;DHT22;1858;48.716;9.648;2022-07-10T14:21:12;23.60;1.00
3684;DHT22;1858;48.716;9.648;2022-07-10T14:23:43;23.70;1.00
3684;DHT22;1858;48.716;9.648;2022-07-10T14:26:13;23.50;1.00
3684;DHT22;1858;48.716;9.648;2022-07-10T14:28:43;23.10;1.00
3684;DHT22;1858;48.716;9.648;2022-07-10T14:31:11;23.20;1.00
3684;DHT22;1858;48.716;9.648;2022-07-10T14:33:40;23.00;1.00
3684;DHT22;1858;48.716;9.648;2022-07-10T14:36:09;22.90;1.00
3684;DHT22;1858;48.716;9.648;2022-07-10T14:38:39;22.80;1.00
3684;DHT22;1858;48.716;9.648;2022-07-10T14:41:08;22.70;1.00
3684;DHT22;1858;48.716;9.648;2022-07-10T14:43:40;22.70;1.00
3684;DHT22;1858;48.716;9.648;2022-07-10T14:46:09;22.50;1.00
3684;DHT22;1858;48.716;9.648;2022-07-10T14:48:39;22.60;1.00
3684;DHT22;1858;48.716;9.648;2022-07-10T14:51:10;22.60;1.00
3684;DHT22;1858;48.716;9.648;2022-07-10T14:53:40;22.60;1.00
3684;DHT22;1858;48.716;9.648;2022-07-10T14:56:11;22.60;1.00
3684;DHT22;1858;48.716;9.648;2022-07-10T14:58:47;22.70;1.00
3684;DHT22;1858;48.716;9.648;2022-07-10T15:01:16;22.80;1.00
3684;DHT22;1858;48.716;9.648;2022-07-10T15:03:46;22.80;1.00
3684;DHT22;1858;48.716;9.648;2022-07-10T15:06:16;22.80;1.00
3684;DHT22;1858;48.716;9.648;2022-07-10T15:08:45;22.80;1.00
3684;DHT22;1858;48.716;9.648;2022-07-10T15:11:16;22.80;1.00
3684;DHT22;1858;48.716;9.648;2022-07-10T15:13:46;22.80;1.00
3684;DHT22;1858;48.716;9.648;2022-07-10T15:16:15;22.90;1.00
3684;DHT22;1858;48.716;9.648;2022-07-10T15:18:47;23.00;1.00
3684;DHT22;1858;48.716;9.648;2022-07-10T15:21:16;23.00;1.00
3684;DHT22;1858;48.716;9.648;2022-07-10T15:23:45;23.00;1.00
3684;DHT22;1858;48.716;9.648;2022-07-10T15:26:15;22.90;1.00
3684;DHT22;1858;48.716;9.648;2022-07-10T15:28:50;22.90;1.00
3684;DHT22;1858;48.716;9.648;2022-07-10T15:31:21;22.80;1.00
3684;DHT22;1858;48.716;9.648;2022-07-10T15:33:50;22.90;1.00
3684;DHT22;1858;48.716;9.648;2022-07-10T15:36:19;22.70;1.00
3684;DHT22;1858;48.716;9.648;2022-07-10T15:38:53;22.30;1.00
3684;DHT22;1858;48.716;9.648;2022-07-10T15:41:22;22.10;1.00
3684;DHT22;1858;48.716;9.648;2022-07-10T15:43:51;22.10;1.00
3684;DHT22;1858;48.716;9.648;2022-07-10T15:46:20;22.10;1.00
3684;DHT22;1858;48.716;9.648;2022-07-10T15:48:50;22.20;1.00
3684;DHT22;1858;48.716;9.648;2022-07-10T15:51:19;22.10;1.00
3684;DHT22;1858;48.716;9.648;2022-07-10T15:53:48;22.00;1.00
3684;DHT22;1858;48.716;9.648;2022-07-10T15:56:17;22.10;1.00
3684;DHT22;1858;48.716;9.648;2022-07-10T15:58:46;22.10;1.00
3684;DHT22;1858;48.716;9.648;2022-07-10T16:01:15;22.10;1.00
3684;DHT22;1858;48.716;9.648;2022-07-10T16:03:45;22.10;1.00
3684;DHT22;1858;48.716;9.648;2022-07-10T16:06:16;22.10;1.00
3684;DHT22;1858;48.716;9.648;2022-07-10T16:08:50;22.10;1.00
3684;DHT22;1858;48.716;9.648;2022-07-10T16:11:19;22.00;1.00
3684;DHT22;1858;48.716;9.648;2022-07-10T16:13:50;22.00;1.00
3684;DHT22;1858;48.716;9.648;2022-07-10T16:16:19;21.90;1.00
3684;DHT22;1858;48.716;9.648;2022-07-10T16:18:51;21.70;1.00
3684;DHT22;1858;48.716;9.648;2022-07-10T16:21:21;21.70;1.00
3684;DHT22;1858;48.716;9.648;2022-07-10T16:23:53;21.70;1.00
3684;DHT22;1858;48.716;9.648;2022-07-10T16:26:28;21.70;1.00
3684;DHT22;1858;48.716;9.648;2022-07-10T16:28:53;21.70;1.00
3684;DHT22;1858;48.716;9.648;2022-07-10T16:31:25;21.80;1.00
3684;DHT22;1858;48.716;9.648;2022-07-10T16:33:55;21.80;1.00
3684;DHT22;1858;48.716;9.648;2022-07-10T16:36:24;21.80;1.00
3684;DHT22;1858;48.716;9.648;2022-07-10T16:38:53;21.70;1.00
3684;DHT22;1858;48.716;9.648;2022-07-10T16:41:22;21.70;1.00
3684;DHT22;1858;48.716;9.648;2022-07-10T16:43:51;21.60;1.00
3684;DHT22;1858;48.716;9.648;2022-07-10T16:46:21;21.50;1.00
3684;DHT22;1858;48.716;9.648;2022-07-10T16:48:50;21.50;1.00
3684;DHT22;1858;48.716;9.648;2022-07-10T16:51:19;21.40;1.00
3684;DHT22;1858;48.716;9.648;2022-07-10T16:53:49;21.40;1.00
3684;DHT22;1858;48.716;9.648;2022-07-10T16:56:20;21.40;1.00
3684;DHT22;1858;48.716;9.648;2022-07-10T16:58:51;21.30;1.00